Time;durP1;ratioP1;P1;durP2;ratioP2;P2;SDS_P1;SDS_P2;PMS_P1;PMS_P2;Temp;Humidity;BMP_temperature;BMP_pressure;BME280_temperature;BME280_humidity;BME280_pressure;Samples;Min_cycle;Max_cycle;Signal;HPM_P1;HPM_P2
2024/01/31 00:01:19;;;;;;;14.57;12.77;;;7.50;74.00;;;;;;6237882;28;20245;-78
2024/01/31 00:04:22;;;;;;;13.87;12.50;;;7.50;73.90;;;;;;6238609;28;20864;-80
2024/01/31 00:07:27;;;;;;;13.77;12.27;;;7.50;73.80;;;;;;6216546;28;20725;-78
2024/01/31 00:10:30;;;;;;;13.93;12.63;;;7.60;73.70;;;;;;6229695;28;20241;-81
2024/01/31 00:13:34;;;;;;;12.20;11.07;;;7.60;73.40;;;;;;6236832;28;20290;-80
2024/01/31 00:16:37;;;;;;;12.30;11.30;;;7.70;73.10;;;;;;6237193;28;20226;-77
2024/01/31 00:19:41;;;;;;;11.43;10.40;;;7.70;73.00;;;;;;6220078;28;20223;-77
2024/01/31 00:22:45;;;;;;;12.43;11.33;;;7.80;72.80;;;;;;6235636;28;20441;-80
2024/01/31 00:25:49;;;;;;;11.70;10.70;;;7.80;72.60;;;;;;6236366;28;20330;-78
2024/01/31 00:28:52;;;;;;;12.40;11.10;;;8.00;72.30;;;;;;6235660;28;20266;-79
2024/01/31 00:31:56;;;;;;;12.87;11.60;;;8.00;72.30;;;;;;6225819;28;20245;-79
2024/01/31 00:34:59;;;;;;;13.17;11.17;;;8.00;72.10;;;;;;6235668;28;20238;-80
2024/01/31 00:38:03;;;;;;;11.97;10.87;;;8.00;72.10;;;;;;6236361;28;20258;-81
2024/01/31 00:41:07;;;;;;;12.90;11.53;;;8.00;72.10;;;;;;6208330;28;20613;-78
2024/01/31 00:44:10;;;;;;;11.10;10.20;;;7.90;72.10;;;;;;6201733;28;20238;-79
2024/01/31 00:47:14;;;;;;;11.27;10.17;;;7.90;72.00;;;;;;6222124;28;20238;-79
2024/01/31 00:50:17;;;;;;;11.63;10.50;;;8.00;71.60;;;;;;6235886;28;20312;-78
2024/01/31 00:53:22;;;;;;;11.17;9.40;;;8.00;71.50;;;;;;6236230;28;20245;-78
2024/01/31 00:56:25;;;;;;;12.43;9.73;;;8.00;71.30;;;;;;6194076;28;1159615;-77
2024/01/31 00:59:28;;;;;;;11.30;10.27;;;8.10;71.20;;;;;;6237600;28;20227;-81
2024/01/31 01:02:31;;;;;;;11.17;10.23;;;8.00;71.20;;;;;;6232631;28;20307;-79
2024/01/31 01:05:34;;;;;;;11.20;10.03;;;8.10;71.10;;;;;;6232992;28;20230;-77
2024/01/31 01:08:39;;;;;;;10.90;9.80;;;8.10;70.80;;;;;;6236283;28;20230;-77
2024/01/31 01:11:42;;;;;;;9.77;8.77;;;8.10;70.70;;;;;;6231858;28;20314;-78
2024/01/31 01:14:45;;;;;;;11.03;9.30;;;8.10;70.60;;;;;;6228115;28;20331;-80
2024/01/31 01:17:48;;;;;;;10.50;9.50;;;8.10;70.60;;;;;;6236206;28;20618;-78
2024/01/31 01:20:51;;;;;;;10.27;9.37;;;8.10;70.50;;;;;;6235756;28;20608;-80
2024/01/31 01:23:56;;;;;;;9.17;8.47;;;8.10;70.30;;;;;;6236266;28;20242;-79
2024/01/31 01:27:00;;;;;;;9.60;8.77;;;8.20;70.00;;;;;;6237228;28;20298;-78
2024/01/31 01:30:03;;;;;;;8.77;7.97;;;8.10;70.00;;;;;;6235042;28;20877;-80
2024/01/31 01:33:07;;;;;;;8.43;7.63;;;8.10;70.00;;;;;;6228105;28;20687;-80
2024/01/31 01:36:10;;;;;;;9.77;7.77;;;8.20;69.70;;;;;;6236284;28;20234;-77
2024/01/31 01:39:15;;;;;;;7.67;7.07;;;8.20;69.50;;;;;;6234391;28;20247;-79
2024/01/31 01:42:18;;;;;;;8.20;7.50;;;8.20;69.20;;;;;;6234819;28;20802;-79
2024/01/31 01:45:21;;;;;;;7.30;6.83;;;8.20;69.00;;;;;;6236651;28;20246;-80
2024/01/31 01:48:25;;;;;;;7.47;7.03;;;8.30;68.90;;;;;;6222326;28;20613;-79
2024/01/31 01:51:28;;;;;;;6.80;6.40;;;8.30;68.50;;;;;;6227709;28;20843;-80
2024/01/31 01:54:33;;;;;;;6.90;6.30;;;8.30;68.40;;;;;;6211547;28;20313;-80
2024/01/31 01:57:38;;;;;;;6.93;6.27;;;8.30;68.30;;;;;;6213915;28;20283;-79
2024/01/31 02:00:45;;;;;;;6.27;5.87;;;8.30;68.20;;;;;;6214617;28;20232;-80
2024/01/31 02:03:54;;;;;;;6.63;5.97;;;8.40;68.30;;;;;;6210233;28;20239;-77
2024/01/31 02:06:58;;;;;;;6.13;5.63;;;8.40;68.00;;;;;;6216407;28;20319;-80
2024/01/31 02:10:03;;;;;;;5.70;5.40;;;8.50;67.80;;;;;;6211967;28;20239;-78
2024/01/31 02:13:07;;;;;;;6.07;5.70;;;8.50;67.70;;;;;;6216170;28;20735;-76
2024/01/31 02:16:10;;;;;;;5.43;4.97;;;8.40;68.00;;;;;;6215067;28;20287;-80
2024/01/31 02:19:13;;;;;;;4.53;4.33;;;8.50;68.00;;;;;;6214171;28;20240;-79
2024/01/31 02:22:19;;;;;;;4.37;4.07;;;8.40;68.50;;;;;;6206076;28;20377;-79
2024/01/31 02:25:22;;;;;;;4.37;4.23;;;8.30;69.00;;;;;;6211517;28;20257;-79
2024/01/31 02:28:25;;;;;;;4.20;4.00;;;8.30;69.30;;;;;;6216738;28;20249;-77
2024/01/31 02:31:28;;;;;;;4.63;4.50;;;8.20;69.80;;;;;;6225329;28;20254;-79
2024/01/31 02:34:32;;;;;;;4.53;4.33;;;8.20;69.90;;;;;;6213588;28;20323;-79
2024/01/31 02:37:42;;;;;;;4.60;4.47;;;8.20;70.00;;;;;;6214326;28;20227;-80
2024/01/31 02:40:45;;;;;;;4.57;4.33;;;8.10;69.80;;;;;;6208265;28;20663;-79
2024/01/31 02:43:50;;;;;;;5.20;4.90;;;8.20;69.70;;;;;;6214883;28;20231;-78
2024/01/31 02:46:53;;;;;;;4.50;4.30;;;8.10;69.90;;;;;;6215666;28;20446;-79
2024/01/31 02:49:56;;;;;;;4.50;4.20;;;8.10;69.80;;;;;;6209964;28;20738;-81
2024/01/31 02:53:01;;;;;;;4.30;4.20;;;8.10;69.80;;;;;;6215020;28;20330;-79
2024/01/31 02:56:06;;;;;;;4.20;3.97;;;8.10;69.80;;;;;;6213341;28;20723;-78
2024/01/31 02:59:09;;;;;;;4.10;3.90;;;8.10;69.70;;;;;;6212161;28;20861;-79
2024/01/31 03:02:14;;;;;;;4.40;4.20;;;8.10;69.70;;;;;;6199957;28;20240;-77
2024/01/31 03:05:17;;;;;;;4.20;4.10;;;8.00;69.90;;;;;;6200838;28;20243;-78
2024/01/31 03:08:22;;;;;;;3.83;3.73;;;8.00;70.00;;;;;;6200242;28;20238;-78
2024/01/31 03:11:25;;;;;;;3.87;3.77;;;8.00;70.20;;;;;;6214861;28;20345;-79
2024/01/31 03:14:28;;;;;;;3.70;3.70;;;8.00;70.40;;;;;;6212178;28;20278;-79
2024/01/31 03:17:35;;;;;;;3.87;3.70;;;8.00;70.40;;;;;;6209464;28;20326;-78
2024/01/31 03:20:39;;;;;;;3.73;3.63;;;7.90;70.40;;;;;;6214206;28;20231;-78
2024/01/31 03:23:43;;;;;;;3.90;3.70;;;7.80;70.50;;;;;;6212840;28;20246;-79
2024/01/31 03:26:47;;;;;;;3.50;3.40;;;7.80;70.70;;;;;;6232764;28;20310;-80
2024/01/31 03:29:50;;;;;;;3.47;3.37;;;7.80;71.00;;;;;;6239458;28;20235;-77
2024/01/31 03:32:53;;;;;;;3.60;3.50;;;7.70;71.20;;;;;;6231802;28;20230;-79
2024/01/31 03:35:57;;;;;;;3.30;3.20;;;7.70;71.10;;;;;;6207634;28;20231;-78
2024/01/31 03:39:02;;;;;;;3.00;2.90;;;7.60;71.20;;;;;;6197356;28;20231;-79
2024/01/31 03:42:06;;;;;;;3.10;3.10;;;7.60;71.40;;;;;;6221344;28;20781;-78
2024/01/31 03:45:09;;;;;;;2.90;2.90;;;7.60;71.40;;;;;;6236943;28;20316;-81
2024/01/31 03:48:12;;;;;;;2.90;2.90;;;7.50;71.60;;;;;;6237748;28;20264;-81
2024/01/31 03:51:19;;;;;;;2.73;2.73;;;7.50;71.60;;;;;;6237617;28;20246;-78
2024/01/31 03:54:24;;;;;;;2.60;2.60;;;7.50;71.90;;;;;;6233986;28;20317;-79
2024/01/31 03:57:27;;;;;;;2.90;2.90;;;7.50;72.10;;;;;;6229244;28;20700;-79
2024/01/31 04:00:30;;;;;;;3.17;3.17;;;7.50;72.20;;;;;;6238021;28;20247;-78
2024/01/31 04:03:34;;;;;;;2.97;2.77;;;7.40;72.30;;;;;;6237764;28;20242;-79
2024/01/31 04:06:37;;;;;;;2.70;2.70;;;7.40;72.30;;;;;;6215341;28;20231;-79
2024/01/31 04:09:42;;;;;;;3.00;2.90;;;7.40;72.30;;;;;;6236942;28;20222;-77
2024/01/31 04:12:45;;;;;;;3.13;3.00;;;7.40;72.40;;;;;;6236573;28;20241;-79
2024/01/31 04:15:48;;;;;;;3.00;3.00;;;7.40;72.30;;;;;;6236508;28;20250;-81
2024/01/31 04:18:52;;;;;;;3.10;3.10;;;7.30;72.70;;;;;;6236790;28;20238;-80
2024/01/31 04:21:55;;;;;;;3.20;3.10;;;7.20;72.90;;;;;;6230636;28;20227;-79
2024/01/31 04:24:59;;;;;;;3.33;3.23;;;7.20;73.10;;;;;;6237227;28;20883;-79
2024/01/31 04:28:03;;;;;;;3.00;3.00;;;7.20;73.30;;;;;;6216515;28;20239;-80
2024/01/31 04:31:13;;;;;;;2.93;2.93;;;7.20;73.20;;;;;;6233651;28;20242;-80
2024/01/31 04:34:16;;;;;;;3.30;3.30;;;7.20;73.30;;;;;;6232690;28;20245;-78
2024/01/31 04:37:19;;;;;;;3.03;3.00;;;7.20;73.30;;;;;;6242059;28;20234;-79
2024/01/31 04:40:24;;;;;;;3.20;3.20;;;7.20;73.30;;;;;;6234754;28;20250;-77
2024/01/31 04:43:27;;;;;;;3.30;3.30;;;7.10;73.40;;;;;;6238002;28;20237;-80
2024/01/31 04:46:30;;;;;;;3.27;3.27;;;7.10;73.50;;;;;;6238209;28;20258;-78
2024/01/31 04:49:33;;;;;;;3.10;3.10;;;7.10;73.40;;;;;;6234926;28;20342;-81
2024/01/31 04:52:37;;;;;;;2.90;2.90;;;7.00;73.70;;;;;;6234091;28;20616;-80
2024/01/31 04:55:41;;;;;;;3.60;3.60;;;7.00;73.80;;;;;;6242183;28;20234;-79
2024/01/31 04:58:44;;;;;;;3.10;3.00;;;7.00;73.80;;;;;;6238420;28;20233;-80
2024/01/31 05:01:48;;;;;;;3.10;3.10;;;7.10;73.60;;;;;;6238013;28;20258;-80
2024/01/31 05:04:51;;;;;;;3.10;3.10;;;7.00;73.80;;;;;;6237236;28;20227;-81
2024/01/31 05:07:54;;;;;;;3.10;3.00;;;6.90;74.50;;;;;;6238796;28;20361;-80
2024/01/31 05:10:59;;;;;;;3.30;3.10;;;6.80;75.20;;;;;;6234815;28;20306;-80
2024/01/31 05:14:03;;;;;;;2.97;2.97;;;6.80;75.40;;;;;;6242953;28;20250;-80
2024/01/31 05:17:06;;;;;;;2.87;2.73;;;6.70;75.80;;;;;;6235204;28;20245;-79
2024/01/31 05:20:10;;;;;;;2.67;2.57;;;6.60;76.20;;;;;;6234663;28;20300;-80
2024/01/31 05:23:13;;;;;;;2.77;2.77;;;6.60;76.20;;;;;;6243759;28;20260;-82
2024/01/31 05:26:19;;;;;;;2.47;2.47;;;6.60;76.40;;;;;;6256097;28;20569;-79
2024/01/31 05:29:22;;;;;;;3.10;2.90;;;6.40;77.10;;;;;;6233503;28;20374;-79
2024/01/31 05:32:25;;;;;;;2.97;2.87;;;6.40;77.50;;;;;;6237939;28;20243;-79
2024/01/31 05:35:29;;;;;;;2.90;2.80;;;6.30;77.70;;;;;;6239084;28;20364;-80
2024/01/31 05:38:33;;;;;;;2.90;2.70;;;6.30;77.90;;;;;;6246305;28;20265;-80
2024/01/31 05:41:41;;;;;;;3.07;2.90;;;6.30;78.10;;;;;;6215504;28;20223;-78
2024/01/31 05:44:45;;;;;;;3.00;2.90;;;6.10;78.60;;;;;;6213307;28;20373;-83
2024/01/31 05:47:48;;;;;;;2.70;2.70;;;6.10;78.70;;;;;;6241452;28;20312;-78
2024/01/31 05:50:52;;;;;;;2.63;2.63;;;6.00;79.20;;;;;;6215702;28;20718;-79
2024/01/31 05:53:55;;;;;;;2.90;2.90;;;6.00;79.30;;;;;;6222759;28;20903;-80
2024/01/31 05:57:07;;;;;;;2.60;2.60;;;5.90;78.90;;;;;;6222824;28;20235;-80
2024/01/31 06:00:13;;;;;;;2.60;2.50;;;5.90;77.50;;;;;;6220904;28;20644;-80
2024/01/31 06:03:16;;;;;;;2.70;2.70;;;5.70;77.70;;;;;;6218114;28;20755;-81
2024/01/31 06:06:20;;;;;;;2.77;2.77;;;5.70;77.50;;;;;;6213342;28;20334;-80
2024/01/31 06:09:23;;;;;;;3.40;3.30;;;5.70;77.90;;;;;;6220217;28;20450;-80
2024/01/31 06:12:28;;;;;;;3.10;3.10;;;5.70;77.90;;;;;;6213278;28;20263;-81
2024/01/31 06:15:31;;;;;;;2.80;2.80;;;5.80;77.90;;;;;;6217801;28;20246;-82
2024/01/31 06:18:34;;;;;;;3.30;3.20;;;5.70;77.90;;;;;;6243702;28;20312;-81
2024/01/31 06:21:38;;;;;;;2.93;2.73;;;5.70;78.10;;;;;;6238742;28;20242;-81
2024/01/31 06:24:41;;;;;;;3.07;3.07;;;5.70;78.10;;;;;;6240596;28;20241;-81
2024/01/31 06:27:46;;;;;;;2.97;2.97;;;5.70;77.60;;;;;;6247182;28;20771;-79
2024/01/31 06:30:58;;;;;;;2.90;2.80;;;5.80;77.00;;;;;;6237007;28;20234;-81
2024/01/31 06:34:02;;;;;;;3.10;3.10;;;5.70;76.70;;;;;;6231125;28;20330;-80
2024/01/31 06:37:05;;;;;;;3.20;2.90;;;5.60;76.60;;;;;;6236016;28;22916;-81
2024/01/31 06:40:09;;;;;;;2.90;2.90;;;5.60;75.80;;;;;;6231406;28;20971;-81
2024/01/31 06:43:13;;;;;;;3.20;3.10;;;5.60;74.70;;;;;;6238315;28;20303;-79
2024/01/31 06:46:18;;;;;;;2.87;2.70;;;5.70;74.00;;;;;;6234815;28;20703;-79
2024/01/31 06:49:21;;;;;;;3.10;3.10;;;5.60;73.90;;;;;;6237923;28;20309;-79
2024/01/31 06:52:25;;;;;;;2.97;2.97;;;5.60;74.40;;;;;;6236359;28;20288;-81
2024/01/31 06:55:28;;;;;;;3.23;3.20;;;5.60;74.40;;;;;;6214796;28;20895;-81
2024/01/31 06:58:33;;;;;;;3.03;3.00;;;5.60;74.30;;;;;;6219524;28;20234;-83
2024/01/31 07:01:36;;;;;;;3.00;3.00;;;5.60;74.40;;;;;;6196302;28;20262;-78
2024/01/31 07:04:39;;;;;;;2.70;2.70;;;5.60;74.10;;;;;;6211497;28;20266;-80
2024/01/31 07:07:42;;;;;;;2.90;2.90;;;5.60;72.50;;;;;;6220389;28;20283;-80
2024/01/31 07:10:46;;;;;;;3.40;2.87;;;5.50;72.00;;;;;;6223394;28;20236;-80
2024/01/31 07:13:51;;;;;;;2.73;2.73;;;5.50;71.50;;;;;;6224179;28;20243;-77
2024/01/31 07:16:55;;;;;;;2.70;2.70;;;5.50;71.10;;;;;;6211079;28;20248;-77
2024/01/31 07:19:58;;;;;;;3.33;3.20;;;5.50;71.30;;;;;;6203869;28;20229;-76
2024/01/31 07:23:01;;;;;;;2.60;2.60;;;5.50;71.20;;;;;;6206742;28;20219;-77
2024/01/31 07:26:05;;;;;;;2.80;2.80;;;5.50;70.70;;;;;;6215276;28;21031;-78
2024/01/31 07:29:10;;;;;;;3.00;3.00;;;5.50;70.60;;;;;;6204996;28;20235;-78
2024/01/31 07:32:13;;;;;;;2.70;2.60;;;5.60;70.60;;;;;;6213252;28;20273;-78
2024/01/31 07:35:17;;;;;;;2.80;2.80;;;5.50;70.80;;;;;;6210804;28;20599;-78
2024/01/31 07:38:20;;;;;;;2.63;2.60;;;5.50;70.70;;;;;;6203408;28;20402;-78
2024/01/31 07:41:24;;;;;;;2.77;2.63;;;5.50;70.80;;;;;;6211737;28;20708;-79
2024/01/31 07:44:29;;;;;;;2.70;2.70;;;5.60;70.90;;;;;;6210111;28;20919;-76
2024/01/31 07:47:36;;;;;;;2.90;2.73;;;5.50;71.50;;;;;;6213186;28;20764;-79
2024/01/31 07:50:40;;;;;;;2.57;2.53;;;5.50;71.40;;;;;;6236446;28;20873;-77
2024/01/31 07:53:43;;;;;;;3.23;3.13;;;5.50;71.20;;;;;;6239661;28;20238;-79
2024/01/31 07:56:47;;;;;;;3.17;3.07;;;5.40;70.80;;;;;;6237165;28;20641;-76
2024/01/31 07:59:51;;;;;;;2.80;2.80;;;5.40;70.30;;;;;;6241152;28;20309;-77
2024/01/31 08:02:54;;;;;;;2.90;2.90;;;5.30;69.90;;;;;;6239912;28;20231;-77
2024/01/31 08:05:59;;;;;;;2.97;2.80;;;5.30;69.90;;;;;;6234232;28;20279;-80
2024/01/31 08:09:03;;;;;;;3.00;2.77;;;5.30;70.10;;;;;;6224380;28;20729;-78
2024/01/31 08:12:18;;;;;;;3.33;2.90;;;5.30;70.10;;;;;;6235775;28;20247;-79
2024/01/31 08:15:24;;;;;;;2.87;2.77;;;5.30;70.30;;;;;;6243254;28;20857;-78
2024/01/31 08:18:30;;;;;;;2.77;2.77;;;5.30;70.40;;;;;;6239587;28;20309;-80
2024/01/31 08:21:33;;;;;;;2.50;2.50;;;5.30;70.50;;;;;;6238478;28;20425;-77
2024/01/31 08:24:36;;;;;;;2.50;2.50;;;5.30;70.60;;;;;;6226549;28;20232;-77
2024/01/31 08:27:39;;;;;;;3.00;2.90;;;5.30;70.80;;;;;;6234914;28;20241;-77
2024/01/31 08:30:43;;;;;;;2.50;2.50;;;5.30;71.10;;;;;;6216309;28;20243;-77
2024/01/31 08:33:47;;;;;;;2.87;2.87;;;5.30;71.20;;;;;;6232568;28;20250;-79
2024/01/31 08:36:50;;;;;;;3.07;2.97;;;5.40;71.40;;;;;;6234724;28;20645;-79
2024/01/31 08:39:53;;;;;;;2.53;2.53;;;5.50;70.90;;;;;;6231224;28;20242;-77
2024/01/31 08:42:58;;;;;;;3.17;3.17;;;5.50;70.80;;;;;;6229749;28;20230;-79
2024/01/31 08:46:03;;;;;;;3.17;2.70;;;5.50;70.90;;;;;;6234696;28;20276;-78
2024/01/31 08:49:06;;;;;;;2.97;2.90;;;5.50;70.70;;;;;;6225064;28;20242;-77
2024/01/31 08:52:10;;;;;;;3.57;3.37;;;5.50;70.60;;;;;;6234644;28;20754;-78
2024/01/31 08:55:15;;;;;;;3.03;3.00;;;5.50;70.90;;;;;;6235315;28;20235;-78
2024/01/31 08:58:18;;;;;;;3.00;3.00;;;5.50;71.10;;;;;;6236423;28;20777;-78
2024/01/31 09:01:22;;;;;;;3.20;3.10;;;5.40;70.80;;;;;;6216796;28;20249;-78
2024/01/31 09:04:26;;;;;;;3.60;3.30;;;5.40;71.60;;;;;;6217546;28;20239;-77
2024/01/31 09:07:29;;;;;;;3.10;3.10;;;5.40;72.60;;;;;;6233874;28;20237;-79
2024/01/31 09:10:32;;;;;;;2.90;2.90;;;5.30;73.10;;;;;;6228397;28;20255;-76
2024/01/31 09:13:36;;;;;;;3.30;3.13;;;5.30;73.10;;;;;;6247017;28;20235;-78
2024/01/31 09:16:41;;;;;;;2.97;2.90;;;5.30;73.30;;;;;;6239973;28;20289;-77
2024/01/31 09:19:44;;;;;;;2.97;2.97;;;5.30;72.20;;;;;;6239277;28;20265;-78
2024/01/31 09:22:49;;;;;;;2.87;2.87;;;5.30;72.30;;;;;;6250472;28;20230;-76
2024/01/31 09:25:53;;;;;;;2.90;2.90;;;5.30;72.20;;;;;;6238494;28;20249;-77
2024/01/31 09:28:57;;;;;;;3.03;2.93;;;5.30;72.30;;;;;;6241141;28;20241;-76
2024/01/31 09:32:02;;;;;;;2.80;2.70;;;5.30;72.20;;;;;;6239802;28;21016;-76
2024/01/31 09:35:07;;;;;;;3.10;2.90;;;5.20;71.60;;;;;;6241208;28;20254;-78
2024/01/31 09:38:10;;;;;;;3.53;3.37;;;5.20;71.50;;;;;;6245292;28;20246;-77
2024/01/31 09:41:13;;;;;;;3.10;3.00;;;5.10;71.30;;;;;;6238417;28;20372;-75
2024/01/31 09:44:18;;;;;;;3.13;3.00;;;5.10;70.70;;;;;;6232434;28;20238;-77
2024/01/31 09:47:26;;;;;;;2.80;2.80;;;5.20;71.10;;;;;;6241211;28;20284;-77
2024/01/31 09:50:29;;;;;;;3.60;3.40;;;5.30;70.20;;;;;;6227353;28;20223;-76
2024/01/31 09:53:36;;;;;;;2.83;2.73;;;5.30;69.70;;;;;;6239249;28;20239;-79
2024/01/31 09:56:40;;;;;;;2.80;2.60;;;5.20;69.80;;;;;;6240584;28;20237;-78
2024/01/31 09:59:43;;;;;;;3.50;3.30;;;5.30;69.80;;;;;;6243579;28;20275;-78
2024/01/31 10:02:50;;;;;;;3.17;3.00;;;5.30;69.70;;;;;;6236211;28;20256;-77
2024/01/31 10:05:53;;;;;;;2.90;2.70;;;5.30;69.30;;;;;;6248881;28;20239;-77
2024/01/31 10:08:57;;;;;;;3.73;2.70;;;5.30;68.70;;;;;;6235452;28;20609;-78
2024/01/31 10:12:02;;;;;;;3.40;2.87;;;5.40;68.00;;;;;;6242120;28;20227;-78
2024/01/31 10:15:08;;;;;;;2.67;2.60;;;5.50;68.00;;;;;;6241052;28;20237;-77
2024/01/31 10:18:13;;;;;;;3.13;3.00;;;5.70;67.40;;;;;;6241653;28;20238;-77
2024/01/31 10:21:19;;;;;;;3.13;3.13;;;5.70;67.30;;;;;;6238397;28;20235;-78
2024/01/31 10:24:22;;;;;;;2.70;2.70;;;5.60;67.50;;;;;;6238095;28;20834;-79
2024/01/31 10:27:25;;;;;;;2.93;2.90;;;5.60;67.80;;;;;;6217743;28;20238;-77
2024/01/31 10:30:30;;;;;;;3.67;3.53;;;5.60;67.80;;;;;;6217930;28;20712;-79
2024/01/31 10:33:35;;;;;;;3.07;2.87;;;5.70;67.80;;;;;;6219765;28;20240;-79
2024/01/31 10:36:40;;;;;;;3.20;3.03;;;5.70;67.70;;;;;;6215844;28;20238;-77
2024/01/31 10:39:47;;;;;;;2.70;2.50;;;5.90;67.70;;;;;;6195586;28;20306;-79
2024/01/31 10:42:52;;;;;;;2.80;2.80;;;6.00;67.10;;;;;;6217398;28;20227;-76
2024/01/31 10:45:55;;;;;;;2.80;2.80;;;6.00;66.80;;;;;;6219917;28;20250;-77
2024/01/31 10:49:00;;;;;;;3.43;3.40;;;5.80;67.20;;;;;;6216879;28;20234;-75
2024/01/31 10:52:07;;;;;;;4.43;2.70;;;5.80;67.50;;;;;;6210781;28;20261;-77
2024/01/31 10:55:11;;;;;;;3.40;3.20;;;5.80;68.10;;;;;;6214563;28;20374;-75
2024/01/31 10:58:16;;;;;;;2.70;2.70;;;5.80;67.40;;;;;;6214047;28;20774;-77
2024/01/31 11:01:19;;;;;;;3.00;2.90;;;5.90;67.20;;;;;;6212591;28;20278;-78
2024/01/31 11:04:24;;;;;;;4.20;3.90;;;5.80;67.70;;;;;;6234712;28;20320;-77
2024/01/31 11:07:27;;;;;;;5.57;5.20;;;5.70;67.60;;;;;;6239058;28;20910;-76
2024/01/31 11:10:31;;;;;;;3.93;3.63;;;5.60;67.80;;;;;;6237657;28;20231;-78
2024/01/31 11:13:36;;;;;;;3.93;3.70;;;5.50;68.00;;;;;;6237975;28;20247;-76
2024/01/31 11:16:39;;;;;;;8.30;4.20;;;5.30;68.70;;;;;;6232037;28;20265;-78
2024/01/31 11:19:48;;;;;;;4.77;4.30;;;5.00;68.60;;;;;;6221856;28;20328;-79
2024/01/31 11:22:53;;;;;;;6.83;3.70;;;5.00;68.50;;;;;;6238494;28;20253;-78
2024/01/31 11:25:58;;;;;;;5.00;4.50;;;5.00;68.70;;;;;;6237654;28;20836;-80
2024/01/31 11:29:03;;;;;;;4.77;4.27;;;5.00;69.00;;;;;;6248040;28;20231;-79
2024/01/31 11:32:07;;;;;;;6.83;4.20;;;5.00;68.20;;;;;;6235790;28;20252;-78
2024/01/31 11:35:12;;;;;;;6.40;4.17;;;5.00;68.10;;;;;;6236622;28;20235;-78
2024/01/31 11:38:15;;;;;;;5.33;4.03;;;5.00;68.00;;;;;;6209391;28;20767;-76
2024/01/31 11:41:19;;;;;;;8.33;4.77;;;5.00;68.10;;;;;;6240636;28;20245;-78
2024/01/31 11:44:23;;;;;;;4.67;4.10;;;5.00;67.80;;;;;;6241050;28;20242;-76
2024/01/31 11:47:27;;;;;;;6.17;4.17;;;5.00;68.40;;;;;;6234884;28;20238;-75
2024/01/31 11:50:32;;;;;;;5.03;3.97;;;5.00;68.70;;;;;;6237152;28;20239;-78
2024/01/31 11:53:35;;;;;;;5.90;4.47;;;5.00;69.20;;;;;;6239879;28;20246;-76
2024/01/31 11:56:39;;;;;;;4.77;3.73;;;5.00;69.60;;;;;;6241355;28;20233;-77
2024/01/31 11:59:42;;;;;;;4.07;3.73;;;5.00;70.00;;;;;;6237639;28;20233;-75
2024/01/31 12:02:46;;;;;;;3.30;3.27;;;5.10;69.80;;;;;;6233879;28;20237;-77
2024/01/31 12:05:58;;;;;;;3.53;3.43;;;5.00;69.90;;;;;;6235001;28;20242;-77
2024/01/31 12:09:01;;;;;;;8.50;4.00;;;5.10;69.80;;;;;;6232193;28;20238;-78
2024/01/31 12:12:05;;;;;;;3.87;3.63;;;5.10;69.90;;;;;;6236003;28;20239;-78
2024/01/31 12:15:12;;;;;;;5.20;3.70;;;5.10;69.30;;;;;;6235484;28;20229;-77
2024/01/31 12:18:16;;;;;;;4.20;3.90;;;5.10;68.50;;;;;;6228654;28;20223;-78
2024/01/31 12:21:21;;;;;;;5.63;3.67;;;5.30;67.50;;;;;;6245201;28;20238;-76
2024/01/31 12:24:25;;;;;;;4.50;3.77;;;5.30;66.60;;;;;;6229909;28;20334;-76
2024/01/31 12:27:28;;;;;;;6.50;3.90;;;5.10;65.40;;;;;;6237344;28;20239;-78
2024/01/31 12:30:32;;;;;;;3.90;3.50;;;5.20;65.10;;;;;;6225790;28;20229;-78
2024/01/31 12:33:35;;;;;;;5.40;3.63;;;5.10;64.90;;;;;;6236985;28;20246;-76
2024/01/31 12:36:39;;;;;;;4.27;3.50;;;5.10;64.70;;;;;;6237552;28;20320;-76
2024/01/31 12:39:43;;;;;;;5.17;3.23;;;5.30;64.20;;;;;;6235495;28;20230;-78
2024/01/31 12:42:48;;;;;;;3.60;3.40;;;5.10;63.50;;;;;;6233107;28;20321;-76
2024/01/31 12:45:51;;;;;;;3.70;3.47;;;5.30;63.10;;;;;;6235481;28;20245;-80
2024/01/31 12:48:54;;;;;;;6.33;3.57;;;5.30;63.20;;;;;;6250178;28;22016;-76
2024/01/31 12:51:59;;;;;;;3.80;3.50;;;5.40;62.50;;;;;;6221102;28;20385;-78
2024/01/31 12:55:02;;;;;;;4.10;3.70;;;5.40;62.80;;;;;;6243771;28;20761;-76
2024/01/31 12:58:06;;;;;;;3.40;3.20;;;5.50;62.70;;;;;;6244098;28;20269;-78
2024/01/31 13:01:09;;;;;;;5.00;3.40;;;5.50;62.60;;;;;;6239436;28;20297;-75
2024/01/31 13:04:12;;;;;;;3.50;3.30;;;5.50;62.70;;;;;;6241729;28;20241;-74
2024/01/31 13:07:17;;;;;;;4.00;3.47;;;5.50;63.00;;;;;;6243969;28;20284;-75
2024/01/31 13:10:20;;;;;;;4.10;3.80;;;5.50;62.90;;;;;;6242402;28;20370;-77
2024/01/31 13:13:23;;;;;;;3.80;3.47;;;5.60;61.60;;;;;;6239909;28;20235;-76
2024/01/31 13:16:26;;;;;;;3.37;3.20;;;5.50;61.70;;;;;;6227706;28;20231;-78
2024/01/31 13:19:30;;;;;;;3.60;3.40;;;5.60;61.70;;;;;;6239585;28;20388;-78
2024/01/31 13:22:35;;;;;;;3.47;3.13;;;5.50;61.80;;;;;;6224403;28;20310;-77
2024/01/31 13:25:38;;;;;;;3.20;3.10;;;5.60;61.90;;;;;;6240283;28;20893;-77
2024/01/31 13:28:41;;;;;;;3.93;3.40;;;5.60;61.80;;;;;;6244330;28;20736;-80
2024/01/31 13:31:44;;;;;;;3.37;3.20;;;5.60;61.90;;;;;;6238869;28;20773;-77
2024/01/31 13:34:48;;;;;;;4.90;3.23;;;5.60;62.50;;;;;;6225168;28;20241;-79
2024/01/31 13:37:54;;;;;;;3.97;3.40;;;5.50;62.70;;;;;;6235333;28;20242;-79
2024/01/31 13:40:57;;;;;;;3.33;3.20;;;5.50;62.90;;;;;;6238103;28;20322;-79
2024/01/31 13:44:00;;;;;;;4.03;3.77;;;5.50;63.20;;;;;;6234245;28;20245;-77
2024/01/31 13:47:04;;;;;;;4.60;4.03;;;5.50;63.90;;;;;;6242085;28;20253;-79
2024/01/31 13:50:08;;;;;;;3.90;3.70;;;5.30;64.70;;;;;;6237279;28;20241;-79
2024/01/31 13:53:12;;;;;;;3.43;3.17;;;5.20;65.50;;;;;;6238609;28;20304;-77
2024/01/31 13:56:15;;;;;;;3.73;3.40;;;5.10;65.90;;;;;;6239456;28;20245;-78
2024/01/31 13:59:18;;;;;;;3.97;3.40;;;5.00;65.50;;;;;;6244097;28;20254;-77
2024/01/31 14:02:21;;;;;;;5.37;3.57;;;5.00;65.40;;;;;;6238355;28;20344;-78
2024/01/31 14:05:25;;;;;;;3.70;3.60;;;5.00;65.40;;;;;;6245847;28;20257;-77
2024/01/31 14:08:29;;;;;;;3.80;3.50;;;5.00;65.20;;;;;;6240830;28;20373;-76
2024/01/31 14:11:32;;;;;;;3.50;3.40;;;5.00;65.40;;;;;;6213251;28;20246;-76
2024/01/31 14:14:35;;;;;;;4.17;3.77;;;5.00;65.50;;;;;;6214281;28;20236;-78
2024/01/31 14:17:38;;;;;;;3.27;3.13;;;5.00;65.40;;;;;;6233004;28;20238;-76
2024/01/31 14:20:42;;;;;;;3.70;3.40;;;5.00;65.70;;;;;;6237298;28;20628;-76
2024/01/31 14:23:47;;;;;;;3.43;3.33;;;5.10;65.70;;;;;;6239255;28;20235;-76
2024/01/31 14:26:59;;;;;;;3.87;3.50;;;5.10;65.50;;;;;;6233696;28;20231;-79
2024/01/31 14:30:03;;;;;;;4.00;3.70;;;5.10;65.80;;;;;;6242098;28;20237;-79
2024/01/31 14:33:06;;;;;;;3.90;3.77;;;5.00;65.30;;;;;;6230434;28;20625;-78
2024/01/31 14:36:10;;;;;;;3.83;3.70;;;5.10;65.50;;;;;;6240787;28;20290;-79
2024/01/31 14:39:16;;;;;;;3.83;3.60;;;5.10;65.40;;;;;;6240132;28;20241;-79
2024/01/31 14:42:19;;;;;;;4.10;3.90;;;5.20;65.30;;;;;;6236891;28;20312;-77
2024/01/31 14:45:23;;;;;;;4.50;4.30;;;5.20;65.60;;;;;;6242602;28;20334;-78
2024/01/31 14:48:26;;;;;;;4.50;4.30;;;5.10;65.70;;;;;;6238803;28;20830;-76
2024/01/31 14:51:29;;;;;;;4.70;4.30;;;5.10;65.80;;;;;;6242530;28;20314;-77
2024/01/31 14:54:35;;;;;;;4.60;4.30;;;5.10;65.90;;;;;;6240436;28;20237;-78
2024/01/31 14:57:38;;;;;;;5.13;4.77;;;5.00;66.20;;;;;;6243424;28;20254;-79
2024/01/31 15:00:41;;;;;;;4.90;4.70;;;5.00;66.10;;;;;;6220319;28;20318;-79
2024/01/31 15:03:44;;;;;;;4.83;4.57;;;5.00;66.00;;;;;;6237928;28;20304;-79
2024/01/31 15:06:48;;;;;;;5.00;4.80;;;4.90;65.80;;;;;;6233095;28;20258;-79
2024/01/31 15:09:52;;;;;;;4.40;4.20;;;4.90;66.00;;;;;;6236234;28;20280;-76
2024/01/31 15:12:55;;;;;;;5.33;5.03;;;4.90;65.90;;;;;;6236784;28;20238;-80
2024/01/31 15:15:58;;;;;;;4.80;4.67;;;4.80;66.00;;;;;;6221655;28;20236;-79
2024/01/31 15:19:02;;;;;;;5.03;4.80;;;4.80;66.40;;;;;;6238200;28;20262;-80
2024/01/31 15:22:06;;;;;;;4.90;4.60;;;4.90;66.20;;;;;;6233524;28;20244;-77
2024/01/31 15:25:10;;;;;;;5.10;4.63;;;4.80;66.40;;;;;;6239243;28;20328;-78
2024/01/31 15:28:14;;;;;;;4.40;4.30;;;4.70;66.50;;;;;;6234536;28;20353;-77
2024/01/31 15:31:18;;;;;;;4.60;4.47;;;4.70;66.40;;;;;;6242999;28;20385;-77
2024/01/31 15:34:21;;;;;;;4.60;4.20;;;4.70;66.30;;;;;;6235394;28;20759;-78
2024/01/31 15:37:25;;;;;;;5.10;4.90;;;4.80;66.10;;;;;;6235515;28;20241;-77
2024/01/31 15:40:30;;;;;;;5.03;4.83;;;4.70;66.60;;;;;;6245858;28;20381;-78
2024/01/31 15:43:33;;;;;;;5.87;5.40;;;4.70;66.60;;;;;;6239352;28;20256;-76
2024/01/31 15:46:38;;;;;;;6.33;6.03;;;4.70;66.80;;;;;;6234967;28;20336;-77
2024/01/31 15:49:41;;;;;;;6.67;6.30;;;4.60;66.50;;;;;;6209074;28;20235;-79
2024/01/31 15:52:44;;;;;;;8.03;7.17;;;4.60;66.40;;;;;;6229032;28;20234;-78
2024/01/31 15:55:51;;;;;;;7.67;6.97;;;4.50;66.50;;;;;;6219591;28;20231;-76
2024/01/31 15:58:54;;;;;;;7.90;7.50;;;4.50;66.70;;;;;;6230616;28;20269;-75
2024/01/31 16:01:57;;;;;;;8.40;7.90;;;4.50;66.80;;;;;;6237343;28;20668;-77
2024/01/31 16:05:00;;;;;;;7.93;7.43;;;4.30;66.80;;;;;;6232037;28;20262;-77
2024/01/31 16:08:04;;;;;;;8.73;8.10;;;4.30;67.00;;;;;;6239206;28;20252;-80